createdAt,value
2022-08-26T00:02:07.438Z,23.36
2022-08-26T00:04:36.362Z,23.27
2022-08-26T00:07:04.704Z,23.21
2022-08-26T00:09:39.083Z,23.20
2022-08-26T00:12:12.168Z,23.18
2022-08-26T00:14:41.260Z,22.86
2022-08-26T00:17:09.941Z,22.63
2022-08-26T00:19:38.054Z,22.28
2022-08-26T00:22:07.080Z,22.14
2022-08-26T00:24:35.480Z,21.96
2022-08-26T00:27:04.052Z,21.95
2022-08-26T00:29:37.688Z,21.91
2022-08-26T00:32:07.008Z,22.20
2022-08-26T00:34:36.248Z,22.30
2022-08-26T00:37:04.497Z,22.44
2022-08-26T00:39:37.950Z,22.53
2022-08-26T00:42:06.200Z,22.60
2022-08-26T00:44:35.860Z,22.45
2022-08-26T00:47:06.973Z,22.57
2022-08-26T00:49:38.442Z,22.78
2022-08-26T00:52:12.088Z,22.89
2022-08-26T00:54:47.050Z,22.94
2022-08-26T00:57:19.214Z,22.96
2022-08-26T00:59:54.632Z,22.98
2022-08-26T01:02:22.958Z,23.00
2022-08-26T01:04:55.646Z,22.85
2022-08-26T01:07:25.854Z,22.78
2022-08-26T01:09:54.033Z,22.70
2022-08-26T01:12:23.130Z,22.58
2022-08-26T01:14:53.176Z,22.52
2022-08-26T01:17:21.774Z,22.47
2022-08-26T01:19:53.491Z,22.44
2022-08-26T01:22:28.676Z,22.40
2022-08-26T01:25:00.382Z,22.36
2022-08-26T01:27:32.978Z,22.08
2022-08-26T01:30:03.710Z,21.84
2022-08-26T01:32:34.524Z,21.91
2022-08-26T01:35:03.990Z,21.80
2022-08-26T01:37:39.010Z,21.82
2022-08-26T01:40:17.857Z,21.64
2022-08-26T01:42:49.238Z,21.78
2022-08-26T01:45:20.985Z,21.92
2022-08-26T01:47:56.510Z,22.01
2022-08-26T01:50:30.725Z,21.99
2022-08-26T01:53:02.702Z,22.04
2022-08-26T01:55:34.200Z,22.05
2022-08-26T01:58:06.551Z,22.13
2022-08-26T02:00:35.336Z,22.18
2022-08-26T02:03:18.051Z,22.20
2022-08-26T02:05:48.730Z,22.30
2022-08-26T02:08:24.802Z,22.21
2022-08-26T02:10:56.001Z,22.20
2022-08-26T02:13:27.536Z,22.14
2022-08-26T02:15:56.278Z,22.18
2022-08-26T02:18:26.492Z,22.08
2022-08-26T02:20:57.110Z,22.16
2022-08-26T02:23:26.029Z,22.15
2022-08-26T02:26:02.229Z,22.13
2022-08-26T02:28:36.934Z,22.04
2022-08-26T02:31:05.042Z,22.05
2022-08-26T02:33:33.247Z,22.07
2022-08-26T02:36:04.077Z,21.99
2022-08-26T02:38:32.092Z,21.96
2022-08-26T02:41:01.627Z,21.98
2022-08-26T02:43:31.622Z,21.96
2022-08-26T02:46:02.319Z,22.14
2022-08-26T02:48:31.238Z,22.30
2022-08-26T02:51:01.926Z,22.27
2022-08-26T02:53:31.970Z,22.44
2022-08-26T02:56:05.293Z,22.26
2022-08-26T03:01:01.742Z,22.07
2022-08-26T03:03:33.665Z,21.84
2022-08-26T03:06:01.996Z,22.14
2022-08-26T03:08:30.381Z,22.32
2022-08-26T03:10:58.204Z,22.54
2022-08-26T03:13:31.032Z,22.60
2022-08-26T03:16:02.439Z,22.53
2022-08-26T03:18:30.795Z,22.62
2022-08-26T03:20:59.194Z,22.38
2022-08-26T03:23:27.174Z,22.16
2022-08-26T03:25:57.025Z,21.79
2022-08-26T03:28:27.289Z,21.62
2022-08-26T03:30:56.025Z,21.53
2022-08-26T03:33:24.413Z,21.57
2022-08-26T03:35:53.734Z,21.60
2022-08-26T03:38:25.273Z,21.41
2022-08-26T03:40:53.620Z,21.30
2022-08-26T03:43:22.525Z,21.09
2022-08-26T03:45:51.289Z,21.27
2022-08-26T03:48:20.658Z,21.41
2022-08-26T03:50:48.804Z,21.38
2022-08-26T03:53:20.543Z,21.46
2022-08-26T03:55:52.026Z,21.46
2022-08-26T03:58:20.920Z,21.28
2022-08-26T04:00:49.533Z,21.04
2022-08-26T04:03:38.756Z,20.84
2022-08-26T04:06:07.514Z,20.64
2022-08-26T04:08:35.831Z,20.68
2022-08-26T04:11:04.323Z,20.85
2022-08-26T04:13:33.751Z,20.85
2022-08-26T04:16:01.557Z,20.89
2022-08-26T04:18:37.047Z,20.99
2022-08-26T04:21:07.924Z,21.22
2022-08-26T04:23:47.166Z,21.11
2022-08-26T04:26:16.436Z,21.28
2022-08-26T04:28:45.235Z,21.37
2022-08-26T04:31:14.754Z,21.46
2022-08-26T04:33:45.758Z,21.52
2022-08-26T04:36:15.394Z,21.67
2022-08-26T04:38:43.308Z,21.85
2022-08-26T04:41:15.582Z,21.88
2022-08-26T04:43:45.455Z,21.88
2022-08-26T04:46:17.444Z,21.94
2022-08-26T04:48:49.146Z,21.90
2022-08-26T04:51:17.694Z,21.84
2022-08-26T04:53:46.351Z,21.88
2022-08-26T04:56:14.447Z,21.83
2022-08-26T04:58:42.471Z,21.80
2022-08-26T05:01:10.710Z,21.94
2022-08-26T05:03:39.014Z,21.85
2022-08-26T05:06:12.434Z,21.95
2022-08-26T05:08:41.034Z,22.12
2022-08-26T05:11:10.883Z,22.55
2022-08-26T05:13:39.576Z,22.79
2022-08-26T05:16:09.522Z,22.92
2022-08-26T05:18:41.325Z,23.07
2022-08-26T05:21:20.409Z,23.33
2022-08-26T05:23:51.421Z,23.15
2022-08-26T05:26:20.246Z,23.30
2022-08-26T05:28:54.718Z,23.69
2022-08-26T05:31:25.633Z,23.79
2022-08-26T05:33:53.766Z,24.15
2022-08-26T05:36:26.994Z,24.55
2022-08-26T05:38:55.620Z,24.80
2022-08-26T05:41:34.483Z,24.98
2022-08-26T05:44:07.436Z,24.97
2022-08-26T05:46:37.818Z,24.27
2022-08-26T05:49:12.791Z,23.41
2022-08-26T05:51:46.410Z,22.90
2022-08-26T05:54:21.728Z,22.97
2022-08-26T05:56:51.219Z,22.96
2022-08-26T05:59:24.130Z,22.98
2022-08-26T06:01:54.839Z,23.15
2022-08-26T06:04:27.515Z,23.50
2022-08-26T06:06:59.919Z,23.20
2022-08-26T06:09:28.462Z,22.92
2022-08-26T06:11:59.067Z,22.84
2022-08-26T06:14:27.039Z,22.37
2022-08-26T06:16:55.364Z,21.99
2022-08-26T06:19:24.318Z,21.80
2022-08-26T06:21:54.711Z,21.65
2022-08-26T06:24:42.257Z,21.72
2022-08-26T06:27:13.925Z,22.12
2022-08-26T06:29:43.601Z,22.10
2022-08-26T06:32:11.604Z,22.47
2022-08-26T06:34:39.674Z,22.43
2022-08-26T06:37:08.925Z,22.11
2022-08-26T06:39:41.210Z,21.92
2022-08-26T06:42:10.811Z,21.81
2022-08-26T06:44:40.912Z,22.08
2022-08-26T06:47:09.157Z,22.28
2022-08-26T06:49:38.290Z,22.58
2022-08-26T06:52:07.850Z,22.88
2022-08-26T07:52:26.670Z,29.17
2022-08-26T07:54:58.008Z,28.74
2022-08-26T07:57:26.508Z,29.11
2022-08-26T07:59:55.737Z,29.25
2022-08-26T08:02:25.556Z,28.86
2022-08-26T08:04:54.722Z,28.89
2022-08-26T08:07:38.385Z,29.89
2022-08-26T08:10:15.123Z,30.73
2022-08-26T08:12:44.020Z,29.39
2022-08-26T08:15:13.965Z,29.29
2022-08-26T08:17:43.934Z,28.68
2022-08-26T08:20:14.809Z,29.64
2022-08-26T08:22:43.651Z,30.12
2022-08-26T08:25:13.870Z,30.40
2022-08-26T08:27:45.216Z,30.32
2022-08-26T08:30:14.285Z,30.43
2022-08-26T08:32:44.673Z,29.70
2022-08-26T08:35:15.617Z,29.43
2022-08-26T08:37:45.327Z,30.27
2022-08-26T08:40:18.631Z,31.39
2022-08-26T08:45:26.638Z,31.43
2022-08-26T08:47:57.997Z,31.22
2022-08-26T08:50:31.005Z,31.63
2022-08-26T08:53:05.780Z,32.41
2022-08-26T08:55:48.868Z,32.62
2022-08-26T08:58:20.601Z,31.34
2022-08-26T09:00:59.217Z,31.53
2022-08-26T09:03:46.636Z,30.42
2022-08-26T09:06:19.008Z,30.48
2022-08-26T09:08:50.120Z,30.37
2022-08-26T09:11:21.328Z,31.18
2022-08-26T09:13:53.932Z,31.31
2022-08-26T09:16:27.577Z,31.92
2022-08-26T09:19:07.134Z,32.01
2022-08-26T09:21:35.852Z,32.09
2022-08-26T09:24:04.858Z,32.54
2022-08-26T09:26:47.404Z,32.95
2022-08-26T09:29:24.467Z,32.00
2022-08-26T09:31:54.100Z,32.67
2022-08-26T09:34:25.092Z,32.91
2022-08-26T09:36:55.215Z,33.20
2022-08-26T09:39:31.715Z,33.27
2022-08-26T09:42:11.242Z,32.70
2022-08-26T09:45:00.224Z,32.16
2022-08-26T09:47:32.011Z,31.69
2022-08-26T09:50:09.668Z,31.10
2022-08-26T09:52:38.109Z,31.16
2022-08-26T09:55:13.698Z,31.13
2022-08-26T09:57:52.180Z,30.81
2022-08-26T10:00:33.498Z,30.87
2022-08-26T10:03:03.749Z,29.98
2022-08-26T10:05:38.279Z,29.61
2022-08-26T10:08:23.044Z,29.28
2022-08-26T10:10:53.287Z,29.69
2022-08-26T10:13:29.581Z,29.78
2022-08-26T10:16:10.638Z,29.39
2022-08-26T10:18:43.917Z,29.14
2022-08-26T10:21:19.978Z,28.93
2022-08-26T10:23:53.029Z,29.10
2022-08-26T10:26:26.583Z,29.64
2022-08-26T10:29:06.506Z,29.75
2022-08-26T10:31:40.949Z,29.35
2022-08-26T10:34:12.481Z,28.63
2022-08-26T10:37:14.844Z,28.15
2022-08-26T10:39:49.695Z,27.46
2022-08-26T10:42:31.111Z,27.72
2022-08-26T10:45:11.802Z,28.46
2022-08-26T10:47:48.893Z,28.67
2022-08-26T10:50:18.858Z,27.58
2022-08-26T10:53:01.347Z,27.60
2022-08-26T10:55:36.592Z,26.98
2022-08-26T10:58:26.405Z,26.72
2022-08-26T11:01:22.819Z,26.18
2022-08-26T11:03:59.539Z,26.00
2022-08-26T11:06:30.044Z,25.86
2022-08-26T11:09:01.029Z,26.00
2022-08-26T11:11:51.811Z,26.48
2022-08-26T11:14:41.030Z,26.60
2022-08-26T11:17:55.709Z,26.79
2022-08-26T11:20:37.298Z,26.55
2022-08-26T11:23:50.460Z,26.77
2022-08-26T11:26:35.433Z,27.38
2022-08-26T11:29:11.967Z,27.53
2022-08-26T11:31:57.120Z,27.70
2022-08-26T11:34:56.379Z,28.57
2022-08-26T11:37:32.466Z,28.89
2022-08-26T11:40:03.205Z,29.42
2022-08-26T11:42:37.797Z,29.96
2022-08-26T11:45:20.480Z,29.92
2022-08-26T11:47:51.227Z,28.95
2022-08-26T11:50:21.207Z,28.60
2022-08-26T11:53:01.860Z,29.32
2022-08-26T11:55:31.858Z,29.41
2022-08-26T11:58:02.422Z,29.02
2022-08-26T12:00:36.275Z,30.72
2022-08-26T12:03:09.378Z,32.23
2022-08-26T12:05:43.618Z,32.47
2022-08-26T12:08:19.520Z,33.30
2022-08-26T12:10:48.386Z,33.72
2022-08-26T12:13:23.807Z,34.20
2022-08-26T12:15:55.658Z,31.83
2022-08-26T12:18:29.371Z,31.75
2022-08-26T12:21:01.701Z,31.72
2022-08-26T12:23:42.103Z,32.47
2022-08-26T12:26:20.084Z,33.16
2022-08-26T12:28:52.784Z,33.28
2022-08-26T12:31:32.614Z,33.02
2022-08-26T12:34:02.379Z,33.52
2022-08-26T12:36:33.777Z,34.50
2022-08-26T12:39:12.931Z,33.57
2022-08-26T12:41:47.741Z,33.71
2022-08-26T12:44:38.074Z,33.84
2022-08-26T12:47:13.321Z,35.09
2022-08-26T12:49:46.503Z,37.54
2022-08-26T12:52:30.855Z,37.61
2022-08-26T12:55:03.433Z,36.30
2022-08-26T12:57:36.075Z,37.58
2022-08-26T13:00:31.100Z,40.00
2022-08-26T13:02:59.757Z,39.09
2022-08-26T13:05:48.678Z,38.46
2022-08-26T13:08:26.469Z,35.40
2022-08-26T13:11:10.253Z,36.52
2022-08-26T13:13:40.420Z,37.79
2022-08-26T13:16:08.538Z,37.02
2022-08-26T13:18:36.817Z,37.38
2022-08-26T13:21:10.811Z,37.60
2022-08-26T13:23:42.401Z,37.56
2022-08-26T13:26:12.102Z,36.49
2022-08-26T13:28:40.512Z,37.14
2022-08-26T13:31:09.978Z,37.87
2022-08-26T13:33:39.273Z,38.91
2022-08-26T13:36:08.727Z,39.02
2022-08-26T13:38:36.852Z,39.52
2022-08-26T13:41:05.895Z,37.69
2022-08-26T13:43:35.722Z,36.09
2022-08-26T13:46:04.098Z,35.45
2022-08-26T13:48:34.192Z,35.40
2022-08-26T13:51:03.513Z,36.69
2022-08-26T13:53:37.240Z,35.98
2022-08-26T13:56:08.035Z,35.62
2022-08-26T13:58:39.739Z,36.48
2022-08-26T14:01:08.720Z,35.56
2022-08-26T14:03:36.749Z,36.09
2022-08-26T14:06:07.575Z,34.19
2022-08-26T14:08:37.001Z,32.82
2022-08-26T14:11:06.884Z,32.61
2022-08-26T14:13:35.376Z,32.59
2022-08-26T14:16:08.928Z,31.17
2022-08-26T14:18:45.192Z,29.12
2022-08-26T14:21:15.707Z,28.68
2022-08-26T14:23:45.364Z,28.93
2022-08-26T14:26:16.833Z,29.11
2022-08-26T14:28:56.997Z,28.78
2022-08-26T14:31:27.232Z,28.72
2022-08-26T14:33:57.700Z,28.93
2022-08-26T14:36:32.624Z,29.21
2022-08-26T14:39:04.414Z,28.85
2022-08-26T14:41:33.666Z,28.31
2022-08-26T14:44:05.107Z,28.57
2022-08-26T14:46:42.169Z,29.33
2022-08-26T14:49:12.555Z,31.97
2022-08-26T14:51:41.022Z,31.88
2022-08-26T14:54:14.847Z,34.44
2022-08-26T14:56:53.445Z,33.30
2022-08-26T14:59:24.664Z,34.40
2022-08-26T15:01:54.869Z,36.25
2022-08-26T15:04:24.935Z,36.33
2022-08-26T15:06:53.785Z,34.55
2022-08-26T15:09:22.379Z,38.20
2022-08-26T15:11:53.204Z,38.78
2022-08-26T15:14:22.237Z,34.81
2022-08-26T15:16:52.712Z,34.83
2022-08-26T15:19:23.940Z,34.23
2022-08-26T15:21:53.188Z,33.67
2022-08-26T15:24:24.911Z,32.83
2022-08-26T15:26:53.754Z,32.20
2022-08-26T15:29:23.752Z,31.81
2022-08-26T15:31:51.989Z,33.11
2022-08-26T15:34:26.322Z,32.16
2022-08-26T15:36:55.217Z,30.78
2022-08-26T15:39:23.621Z,31.88
2022-08-26T15:41:52.360Z,32.08
2022-08-26T15:44:20.929Z,33.39
2022-08-26T15:46:52.473Z,32.77
2022-08-26T15:49:24.707Z,31.13
2022-08-26T15:51:54.666Z,29.91
2022-08-26T15:54:24.439Z,30.22
2022-08-26T15:56:53.184Z,32.06
2022-08-26T15:59:23.043Z,30.90
2022-08-26T16:01:52.173Z,29.46
2022-08-26T16:04:20.680Z,29.47
2022-08-26T16:06:52.364Z,30.78
2022-08-26T16:09:24.266Z,29.75
2022-08-26T16:11:52.906Z,29.47
2022-08-26T16:14:21.112Z,27.72
2022-08-26T16:16:50.789Z,28.18
2022-08-26T16:19:19.625Z,27.72
2022-08-26T16:21:48.188Z,27.23
2022-08-26T16:24:29.769Z,27.69
2022-08-26T16:26:58.959Z,27.49
2022-08-26T16:29:27.858Z,27.25
2022-08-26T16:31:56.021Z,26.86
2022-08-26T16:34:24.356Z,26.71
2022-08-26T16:36:53.023Z,26.74
2022-08-26T16:39:23.039Z,26.65
2022-08-26T16:41:51.008Z,26.60
2022-08-26T16:44:19.535Z,26.77
2022-08-26T16:46:48.233Z,26.63
2022-08-26T16:49:18.812Z,26.24
2022-08-26T16:51:47.075Z,26.34
2022-08-26T16:54:15.679Z,26.09
2022-08-26T16:56:45.530Z,26.16
2022-08-26T16:59:13.928Z,25.98
2022-08-26T17:01:42.513Z,25.92
2022-08-26T17:04:11.424Z,26.02
2022-08-26T17:06:40.162Z,25.79
2022-08-26T17:09:08.684Z,25.86
2022-08-26T17:11:37.881Z,25.64
2022-08-26T17:14:07.787Z,25.54
2022-08-26T17:16:35.831Z,25.43
2022-08-26T17:19:05.950Z,25.51
2022-08-26T17:21:36.874Z,25.56
2022-08-26T17:24:06.667Z,25.37
2022-08-26T17:26:37.912Z,25.41
2022-08-26T17:29:08.612Z,25.35
2022-08-26T17:31:37.532Z,25.24
2022-08-26T17:34:08.839Z,25.12
2022-08-26T17:36:37.043Z,25.01
2022-08-26T17:39:07.120Z,24.97
2022-08-26T17:41:35.653Z,25.01
2022-08-26T17:44:04.505Z,25.03
2022-08-26T17:46:38.194Z,25.02
2022-08-26T17:49:10.165Z,24.96
2022-08-26T17:51:38.110Z,25.00
2022-08-26T17:54:07.307Z,25.00
2022-08-26T17:56:35.714Z,24.95
2022-08-26T17:59:04.283Z,24.95
2022-08-26T18:01:37.613Z,24.83
2022-08-26T18:04:07.406Z,24.81
2022-08-26T18:06:35.882Z,24.76
2022-08-26T18:09:04.327Z,24.81
2022-08-26T18:11:34.821Z,24.71
2022-08-26T18:14:03.145Z,24.70
2022-08-26T18:16:31.817Z,24.70
2022-08-26T18:19:01.638Z,24.69
2022-08-26T18:21:30.679Z,24.58
2022-08-26T18:23:59.136Z,24.57
2022-08-26T18:26:29.105Z,24.54
2022-08-26T18:28:57.475Z,24.50
2022-08-26T18:31:26.746Z,24.43
2022-08-26T18:33:55.779Z,24.42
2022-08-26T18:36:30.132Z,24.31
2022-08-26T18:38:58.785Z,24.23
2022-08-26T18:41:29.654Z,24.17
2022-08-26T18:43:59.473Z,24.14
2022-08-26T18:46:29.416Z,24.06
2022-08-26T18:48:59.235Z,24.01
2022-08-26T18:51:34.526Z,23.99
2022-08-26T18:54:05.556Z,23.97
2022-08-26T18:56:34.697Z,23.93
2022-08-26T18:59:04.703Z,23.95
2022-08-26T19:01:33.374Z,23.91
2022-08-26T19:04:04.301Z,23.87
2022-08-26T19:06:35.535Z,23.80
2022-08-26T19:09:04.459Z,23.78
2022-08-26T19:11:38.347Z,23.76
2022-08-26T19:14:13.671Z,23.76
2022-08-26T19:16:43.505Z,23.75
2022-08-26T19:19:11.814Z,23.68
2022-08-26T19:21:41.332Z,23.63
2022-08-26T19:24:15.274Z,23.62
2022-08-26T19:26:43.910Z,23.66
2022-08-26T19:29:12.318Z,23.58
2022-08-26T19:31:42.229Z,23.51
2022-08-26T19:34:12.824Z,23.48
2022-08-26T19:36:44.823Z,23.57
2022-08-26T19:39:15.025Z,23.52
2022-08-26T19:41:44.225Z,23.58
2022-08-26T19:44:34.313Z,23.48
2022-08-26T19:47:03.592Z,23.39
2022-08-26T19:49:32.075Z,23.34
2022-08-26T19:52:03.910Z,23.28
2022-08-26T19:54:32.115Z,23.23
2022-08-26T19:57:00.847Z,23.21
2022-08-26T19:59:29.284Z,23.26
2022-08-26T20:02:01.064Z,23.14
2022-08-26T20:04:30.258Z,23.08
2022-08-26T20:06:58.828Z,23.09
2022-08-26T20:09:31.143Z,23.04
2022-08-26T20:12:00.181Z,23.04
2022-08-26T20:14:30.612Z,23.13
2022-08-26T20:16:58.952Z,23.13
2022-08-26T20:19:45.507Z,23.29
2022-08-26T20:22:20.102Z,23.30
2022-08-26T20:24:49.614Z,23.36
2022-08-26T20:27:17.864Z,23.24
2022-08-26T20:29:46.234Z,23.25
2022-08-26T20:32:14.921Z,23.31
2022-08-26T20:34:42.991Z,23.16
2022-08-26T20:37:12.404Z,23.37
2022-08-26T20:39:40.291Z,23.43
2022-08-26T20:42:20.174Z,23.48
2022-08-26T20:44:54.500Z,23.38
2022-08-26T20:47:23.784Z,23.34
2022-08-26T20:49:52.678Z,23.23
2022-08-26T20:52:21.430Z,23.29
2022-08-26T20:54:49.275Z,23.21
2022-08-26T20:57:18.937Z,23.17
2022-08-26T20:59:47.362Z,23.19
2022-08-26T21:02:16.583Z,23.17
2022-08-26T21:04:44.800Z,23.19
2022-08-26T21:07:13.230Z,23.00
2022-08-26T21:09:41.375Z,22.88
2022-08-26T21:12:10.145Z,22.96
2022-08-26T21:14:39.630Z,22.96
2022-08-26T21:17:07.917Z,22.97
2022-08-26T21:19:35.662Z,22.91
2022-08-26T21:22:04.136Z,22.97
2022-08-26T21:24:32.338Z,22.92
2022-08-26T21:27:00.758Z,22.76
2022-08-26T21:29:29.065Z,22.56
2022-08-26T21:31:58.910Z,22.48
2022-08-26T21:34:27.158Z,22.42
2022-08-26T21:36:55.141Z,22.36
2022-08-26T21:39:23.448Z,22.35
2022-08-26T21:41:51.533Z,22.27
2022-08-26T21:44:19.473Z,22.22
2022-08-26T21:46:49.167Z,22.28
2022-08-26T21:49:18.665Z,22.19
2022-08-26T21:51:49.355Z,22.19
2022-08-26T21:54:18.388Z,22.25
2022-08-26T21:56:47.901Z,22.11
2022-08-26T21:59:17.417Z,22.19
2022-08-26T22:01:45.488Z,22.11
2022-08-26T22:04:13.603Z,22.09
2022-08-26T22:06:45.488Z,22.10
2022-08-26T22:09:14.958Z,22.13
2022-08-26T22:11:42.995Z,22.07
2022-08-26T22:14:11.393Z,22.10
2022-08-26T22:16:40.033Z,22.03
2022-08-26T22:19:12.279Z,22.04
2022-08-26T22:21:46.954Z,22.02
2022-08-26T22:24:14.721Z,22.07
2022-08-26T22:26:43.093Z,22.12
2022-08-26T22:29:11.028Z,22.16
2022-08-26T22:31:40.214Z,22.15
2022-08-26T22:34:11.428Z,22.17
2022-08-26T22:36:43.985Z,22.17
2022-08-26T22:39:16.266Z,22.13
2022-08-26T22:41:45.441Z,22.14
2022-08-26T22:44:14.006Z,22.12
2022-08-26T22:46:44.005Z,22.36
2022-08-26T22:49:15.778Z,22.14
2022-08-26T22:51:44.273Z,21.96
2022-08-26T22:54:14.448Z,21.93
2022-08-26T22:56:43.636Z,21.90
2022-08-26T22:59:12.399Z,21.87
2022-08-26T23:01:44.173Z,22.07
2022-08-26T23:04:12.913Z,22.00
2022-08-26T23:06:47.617Z,22.10
2022-08-26T23:09:18.771Z,22.04
2022-08-26T23:11:47.864Z,22.02
2022-08-26T23:14:20.210Z,22.02
2022-08-26T23:16:48.702Z,21.97
2022-08-26T23:19:19.256Z,21.88
2022-08-26T23:21:47.616Z,21.94
2022-08-26T23:24:18.079Z,21.82
2022-08-26T23:26:47.148Z,21.77
2022-08-26T23:29:15.528Z,21.76
2022-08-26T23:31:44.312Z,21.75
2022-08-26T23:34:30.382Z,21.70
2022-08-26T23:36:59.323Z,21.64
2022-08-26T23:39:32.842Z,21.57
2022-08-26T23:42:01.906Z,21.71
2022-08-26T23:44:30.572Z,21.64
2022-08-26T23:46:59.180Z,21.42
2022-08-26T23:49:27.544Z,21.43
2022-08-26T23:52:12.972Z,21.49
2022-08-26T23:54:42.472Z,21.48
2022-08-26T23:57:11.463Z,21.41
2022-08-26T23:59:40.113Z,21.31
